Камери на живо
METAR for:LBSF (Sofia Arpt, --, BU)
Text:LBSF 181530Z 05009KT 010V080 9999 FEW072 25/10 Q1018 NOSIG
Temperature: 25.0°C ( 77°F)
Dewpoint: 10.0°C ( 50°F) [RH = 39%]
Pressure (altimeter):30.06 inches Hg (1018.0 mb)
Winds:from the NE (50 degrees) at 10 MPH (9 knots; 4.6 m/s)
Visibility:6 or more sm (10+ km)
Ceiling:at least 12,000 feet AGL
Clouds: few clouds at 7200 feet AGL

TAF for:LBSF (Sofia Arpt, --, BU) issued at 1100 UTC 18 Sep 2020
Text:TAF LBSF 181100Z 1812/1912 07012KT 9999 SCT060
Forecast period:1200 UTC 18 September 2020 to 1200 UTC 19 September 2020
Forecast type:FROM: standard forecast or significant change
Winds:from the ENE (70 degrees) at 14 MPH (12 knots; 6.2 m/s)
Visibility:6 or more sm (10+ km)
Ceiling:at least 12,000 feet AGL
Clouds: scattered clouds at 6000 feet AGL